createdAt,value
2022-09-12T00:02:20.345Z,98233.91
2022-09-12T00:05:23.359Z,98245.59
2022-09-12T00:08:26.241Z,98248.50
2022-09-12T00:11:29.660Z,98254.69
2022-09-12T00:14:32.195Z,98246.59
2022-09-12T00:17:36.298Z,98245.97
2022-09-12T00:20:46.944Z,98233.78
2022-09-12T00:23:50.695Z,98238.31
2022-09-12T00:26:53.211Z,98238.13
2022-09-12T00:29:56.014Z,98234.72
2022-09-12T00:32:58.498Z,98235.53
2022-09-12T00:36:05.890Z,98235.53
2022-09-12T00:39:09.228Z,98240.25
2022-09-12T00:42:12.635Z,98233.78
2022-09-12T00:45:24.854Z,98243.03
2022-09-12T00:48:40.643Z,98243.91
2022-09-12T00:51:53.020Z,98251.16
2022-09-12T00:55:11.146Z,98248.63
2022-09-12T00:58:18.172Z,98257.34
2022-09-12T01:01:21.174Z,98255.00
2022-09-12T01:04:26.379Z,98250.47
2022-09-12T01:07:29.283Z,98259.81
2022-09-12T01:10:34.937Z,98259.97
2022-09-12T01:13:37.998Z,98257.47
2022-09-12T01:16:40.860Z,98254.94
2022-09-12T01:19:46.575Z,98239.09
2022-09-12T01:23:11.071Z,98248.47
2022-09-12T01:26:13.747Z,98249.91
2022-09-12T01:29:28.052Z,98245.38
2022-09-12T01:32:42.837Z,98246.22
2022-09-12T01:35:51.338Z,98241.78
2022-09-12T01:39:00.625Z,98241.78
2022-09-12T01:42:17.695Z,98241.09
2022-09-12T01:45:34.890Z,98239.63
2022-09-12T01:48:44.303Z,98230.75
2022-09-12T01:51:53.609Z,98235.63
2022-09-12T01:55:03.718Z,98229.06
2022-09-12T01:58:14.105Z,98226.38
2022-09-12T02:01:39.211Z,98230.38
2022-09-12T02:04:52.785Z,98222.47
2022-09-12T02:08:12.075Z,98221.00
2022-09-12T02:11:14.813Z,98227.88
2022-09-12T02:14:29.415Z,98228.56
2022-09-12T02:17:32.716Z,98223.16
2022-09-12T02:20:47.960Z,98240.50
2022-09-12T02:23:57.733Z,98235.88
2022-09-12T02:27:05.251Z,98235.88
2022-09-12T02:30:09.172Z,98230.38
2022-09-12T02:33:27.677Z,98232.91
2022-09-12T02:36:46.557Z,98232.06
2022-09-12T02:39:49.155Z,98222.56
2022-09-12T02:42:52.295Z,98228.97
2022-09-12T02:45:54.932Z,98230.66
2022-09-12T02:48:58.240Z,98225.50
2022-09-12T02:52:01.751Z,98212.72
2022-09-12T02:55:06.075Z,98228.19
2022-09-12T02:58:13.624Z,98225.31
2022-09-12T03:01:29.046Z,98239.81
2022-09-12T03:04:40.892Z,98239.28
2022-09-12T03:08:08.871Z,98238.84
2022-09-12T03:11:17.450Z,98239.53
2022-09-12T03:14:27.854Z,98244.94
2022-09-12T03:17:34.494Z,98244.44
2022-09-12T03:20:56.494Z,98244.69
2022-09-12T03:24:19.374Z,98249.75
2022-09-12T03:27:43.833Z,98256.91
2022-09-12T03:30:48.328Z,98254.50
2022-09-12T03:33:51.246Z,98258.81
2022-09-12T03:36:55.546Z,98265.16
2022-09-12T03:39:58.483Z,98250.56
2022-09-12T03:43:01.398Z,98265.59
2022-09-12T03:46:04.188Z,98261.38
2022-09-12T03:49:06.784Z,98263.87
2022-09-12T03:52:09.607Z,98266.44
2022-09-12T03:55:12.291Z,98264.72
2022-09-12T03:58:15.096Z,98264.53
2022-09-12T04:01:18.868Z,98269.38
2022-09-12T04:04:21.863Z,98267.44
2022-09-12T04:07:24.448Z,98273.63
2022-09-12T04:10:27.650Z,98272.81
2022-09-12T04:13:30.217Z,98258.19
2022-09-12T04:16:33.144Z,98280.97
2022-09-12T04:19:35.934Z,98282.00
2022-09-12T04:22:38.756Z,98278.00
2022-09-12T04:25:41.297Z,98284.25
2022-09-12T04:28:44.509Z,98262.28
2022-09-12T04:31:47.102Z,98277.09
2022-09-12T04:34:49.903Z,98273.81
2022-09-12T04:37:52.431Z,98261.16
2022-09-12T04:40:55.518Z,98275.72
2022-09-12T04:44:01.673Z,98263.09
2022-09-12T04:47:04.559Z,98268.41
2022-09-12T04:50:07.591Z,98275.78
2022-09-12T04:53:10.840Z,98264.81
2022-09-12T04:56:13.293Z,98268.72
2022-09-12T04:59:17.795Z,98274.03
2022-09-12T05:02:20.357Z,98271.19
2022-09-12T05:05:23.205Z,98282.06
2022-09-12T05:08:26.006Z,98275.16
2022-09-12T05:12:02.212Z,98269.31
2022-09-12T05:14:55.975Z,98276.38
2022-09-12T05:17:58.779Z,98276.34
2022-09-12T05:21:02.785Z,98273.97
2022-09-12T05:24:06.686Z,98272.16
2022-09-12T05:27:09.762Z,98275.88
2022-09-12T05:30:12.919Z,98275.88
2022-09-12T05:33:15.966Z,98287.59
2022-09-12T05:36:21.362Z,98292.78
2022-09-12T05:39:24.637Z,98297.88
2022-09-12T05:42:29.913Z,98293.19
2022-09-12T05:45:32.435Z,98286.19
2022-09-12T05:48:39.050Z,98308.53
2022-09-12T05:51:45.694Z,98308.16
2022-09-12T05:54:48.572Z,98298.91
2022-09-12T05:57:51.313Z,98299.44
2022-09-12T06:00:54.026Z,98305.00
2022-09-12T06:04:00.691Z,98298.09
2022-09-12T06:07:03.152Z,98288.03
2022-09-12T06:10:06.388Z,98303.97
2022-09-12T06:13:08.854Z,98306.34
2022-09-12T06:16:21.982Z,98311.31
2022-09-12T06:19:25.345Z,98314.84
2022-09-12T06:22:28.223Z,98306.84
2022-09-12T06:25:30.716Z,98310.16
2022-09-12T06:28:36.073Z,98312.97
2022-09-12T06:31:40.507Z,98312.09
2022-09-12T06:34:43.250Z,98306.59
2022-09-12T06:37:45.792Z,98294.16
2022-09-12T06:40:49.243Z,98308.25
2022-09-12T06:43:52.075Z,98316.22
2022-09-12T06:46:54.841Z,98313.38
2022-09-12T06:49:57.340Z,98309.66
2022-09-12T06:53:00.088Z,98308.50
2022-09-12T06:56:05.229Z,98316.69
2022-09-12T06:59:08.168Z,98317.16
2022-09-12T07:02:10.718Z,98325.91
2022-09-12T07:05:13.966Z,98326.59
2022-09-12T07:08:18.465Z,98324.09
2022-09-12T07:11:23.713Z,98322.16
2022-09-12T07:14:26.288Z,98320.72
2022-09-12T07:17:29.242Z,98317.66
2022-09-12T07:20:33.167Z,98334.72
2022-09-12T07:23:36.249Z,98328.28
2022-09-12T07:26:40.269Z,98327.97
2022-09-12T07:29:44.296Z,98330.34
2022-09-12T07:32:46.864Z,98338.75
2022-09-12T07:35:49.904Z,98340.06
2022-09-12T07:38:57.652Z,98351.59
2022-09-12T07:42:00.557Z,98348.09
2022-09-12T07:45:03.888Z,98357.63
2022-09-12T07:48:06.678Z,98342.56
2022-09-12T07:51:10.973Z,98357.28
2022-09-12T07:54:13.681Z,98359.06
2022-09-12T07:57:16.168Z,98362.09
2022-09-12T08:00:19.109Z,98354.53
2022-09-12T08:03:21.824Z,98355.72
2022-09-12T08:06:25.737Z,98352.56
2022-09-12T08:09:28.586Z,98346.94
2022-09-12T08:12:32.288Z,98348.03
2022-09-12T08:15:35.672Z,98344.47
2022-09-12T08:18:38.361Z,98343.38
2022-09-12T08:21:41.146Z,98341.22
2022-09-12T08:24:43.822Z,98352.06
2022-09-12T08:27:46.948Z,98356.28
2022-09-12T08:30:50.185Z,98352.53
2022-09-12T08:33:55.910Z,98358.81
2022-09-12T08:36:58.539Z,98351.28
2022-09-12T08:40:01.729Z,98350.94
2022-09-12T08:43:21.149Z,98349.22
2022-09-12T08:46:47.153Z,98338.47
2022-09-12T08:50:08.692Z,98336.44
2022-09-12T08:53:18.516Z,98346.56
2022-09-12T08:56:21.489Z,98339.09
2022-09-12T08:59:25.692Z,98333.16
2022-09-12T09:02:57.430Z,98340.56
2022-09-12T09:06:11.165Z,98332.81
2022-09-12T09:09:36.115Z,98356.63
2022-09-12T09:12:41.556Z,98349.25
2022-09-12T09:16:12.661Z,98343.09
2022-09-12T09:19:25.381Z,98329.78
2022-09-12T09:22:42.772Z,98333.56
2022-09-12T09:26:14.768Z,98339.66
2022-09-12T09:29:23.816Z,98339.87
2022-09-12T09:32:38.650Z,98349.66
2022-09-12T09:35:46.033Z,98338.09
2022-09-12T09:39:06.125Z,98344.31
2022-09-12T09:42:13.530Z,98330.53
2022-09-12T09:45:24.453Z,98348.72
2022-09-12T09:48:37.899Z,98338.81
2022-09-12T09:51:41.717Z,98345.56
2022-09-12T09:54:49.621Z,98345.03
2022-09-12T09:57:53.418Z,98343.00
2022-09-12T10:01:04.378Z,98339.34
2022-09-12T10:04:18.585Z,98327.56
2022-09-12T10:07:24.515Z,98337.19
2022-09-12T10:10:27.507Z,98333.91
2022-09-12T10:13:57.526Z,98332.87
2022-09-12T10:17:00.315Z,98328.50
2022-09-12T10:23:31.080Z,98324.56
2022-09-12T10:26:37.997Z,98328.56
2022-09-12T10:29:50.473Z,98339.28
2022-09-12T10:32:54.143Z,98329.59
2022-09-12T10:36:03.359Z,98332.72
2022-09-12T10:39:06.339Z,98332.25
2022-09-12T10:42:14.684Z,98330.06
2022-09-12T10:45:27.167Z,98330.63
2022-09-12T10:48:31.867Z,98330.09
2022-09-12T10:51:34.353Z,98327.62
2022-09-12T10:54:37.286Z,98343.59
2022-09-12T10:58:13.133Z,98334.59
2022-09-12T11:01:21.921Z,98330.34
2022-09-12T11:04:54.695Z,98329.41
2022-09-12T11:08:20.312Z,98337.94
2022-09-12T11:11:32.283Z,98327.00
2022-09-12T11:14:47.019Z,98331.03
2022-09-12T11:18:04.592Z,98326.97
2022-09-12T11:21:23.787Z,98314.75
2022-09-12T11:24:44.746Z,98324.03
2022-09-12T11:27:56.682Z,98322.94
2022-09-12T11:31:27.350Z,98320.03
2022-09-12T11:34:36.399Z,98322.09
2022-09-12T11:38:13.052Z,98318.25
2022-09-12T11:41:34.290Z,98327.28
2022-09-12T11:44:40.633Z,98325.44
2022-09-12T11:47:48.425Z,98323.84
2022-09-12T11:50:51.157Z,98333.78
2022-09-12T11:54:01.112Z,98321.31
2022-09-12T11:57:09.406Z,98327.44
2022-09-12T12:00:26.615Z,98331.00
2022-09-12T12:03:40.411Z,98330.38
2022-09-12T12:06:52.128Z,98325.94
2022-09-12T12:09:55.699Z,98308.84
2022-09-12T12:12:59.428Z,98328.88
2022-09-12T12:16:09.049Z,98327.00
2022-09-12T12:19:14.479Z,98316.59
2022-09-12T12:22:24.375Z,98319.56
2022-09-12T12:25:40.072Z,98321.81
2022-09-12T12:28:42.877Z,98308.22
2022-09-12T12:32:03.668Z,98306.28
2022-09-12T12:35:35.504Z,98298.66
2022-09-12T12:38:39.724Z,98274.66
2022-09-12T12:41:44.010Z,98296.97
2022-09-12T12:44:47.314Z,98288.81
2022-09-12T12:47:56.217Z,98288.34
2022-09-12T12:51:29.914Z,98286.22
2022-09-12T12:54:41.854Z,98278.22
2022-09-12T12:57:49.963Z,98283.84
2022-09-12T13:01:08.251Z,98287.22
2022-09-12T13:04:16.882Z,98285.91
2022-09-12T13:07:28.685Z,98277.75
2022-09-12T13:10:31.467Z,98275.00
2022-09-12T13:13:49.648Z,98275.78
2022-09-12T13:16:54.726Z,98294.59
2022-09-12T13:20:28.647Z,98283.16
2022-09-12T13:23:32.660Z,98282.91
2022-09-12T13:26:41.413Z,98267.19
2022-09-12T13:29:44.093Z,98274.81
2022-09-12T13:32:46.823Z,98273.91
2022-09-12T13:36:01.543Z,98268.78
2022-09-12T13:39:50.021Z,98271.25
2022-09-12T13:43:17.026Z,98268.31
2022-09-12T13:46:31.137Z,98266.75
2022-09-12T13:49:40.536Z,98264.34
2022-09-12T13:52:47.432Z,98262.53
2022-09-12T13:55:52.569Z,98248.37
2022-09-12T13:58:57.608Z,98252.34
2022-09-12T14:02:00.159Z,98251.53
2022-09-12T14:05:20.151Z,98251.75
2022-09-12T14:08:23.936Z,98245.72
2022-09-12T14:11:30.775Z,98255.13
2022-09-12T14:14:36.100Z,98250.13
2022-09-12T14:17:39.901Z,98248.22
2022-09-12T14:20:42.746Z,98249.59
2022-09-12T14:23:48.092Z,98254.72
2022-09-12T14:26:54.474Z,98255.37
2022-09-12T14:30:26.905Z,98250.00
2022-09-12T14:33:33.211Z,98260.34
2022-09-12T14:36:41.100Z,98258.50
2022-09-12T14:39:44.681Z,98256.78
2022-09-12T14:42:49.765Z,98257.38
2022-09-12T14:45:59.540Z,98259.44
2022-09-12T14:49:09.165Z,98260.78
2022-09-12T14:52:32.450Z,98248.87
2022-09-12T14:55:44.150Z,98250.66
2022-09-12T14:58:46.645Z,98247.50
2022-09-12T15:01:49.428Z,98254.84
2022-09-12T15:05:08.651Z,98255.13
2022-09-12T15:08:15.012Z,98249.38
2022-09-12T15:11:17.481Z,98249.78
2022-09-12T15:14:20.261Z,98252.50
2022-09-12T15:17:22.752Z,98259.66
2022-09-12T15:20:26.222Z,98264.06
2022-09-12T15:23:44.657Z,98263.16
2022-09-12T15:26:47.504Z,98264.31
2022-09-12T15:29:50.021Z,98264.00
2022-09-12T15:32:52.854Z,98262.41
2022-09-12T15:35:55.379Z,98243.03
2022-09-12T15:38:58.622Z,98268.53
2022-09-12T15:42:01.161Z,98263.28
2022-09-12T15:45:17.410Z,98265.09
2022-09-12T15:48:21.028Z,98265.56
2022-09-12T15:51:23.810Z,98263.94
2022-09-12T15:54:26.771Z,98257.56
2022-09-12T15:57:29.640Z,98249.34
2022-09-12T16:00:32.173Z,98261.75
2022-09-12T16:03:34.966Z,98260.59
2022-09-12T16:06:37.636Z,98264.91
2022-09-12T16:09:40.372Z,98257.75
2022-09-12T16:12:44.617Z,98266.97
2022-09-12T16:15:47.412Z,98258.34
2022-09-12T16:18:49.911Z,98250.69
2022-09-12T16:21:52.887Z,98261.25
2022-09-12T16:24:55.394Z,98259.03
2022-09-12T16:27:58.431Z,98262.91
2022-09-12T16:31:03.807Z,98273.00
2022-09-12T16:34:07.231Z,98268.13
2022-09-12T16:37:09.775Z,98268.50
2022-09-12T16:40:12.651Z,98274.56
2022-09-12T16:43:17.364Z,98278.06
2022-09-12T16:46:22.262Z,98276.91
2022-09-12T16:49:24.746Z,98271.09
2022-09-12T16:52:27.574Z,98270.09
2022-09-12T16:55:32.350Z,98273.13
2022-09-12T16:58:41.566Z,98273.00
2022-09-12T17:01:45.335Z,98270.72
2022-09-12T17:04:48.866Z,98268.00
2022-09-12T17:07:52.006Z,98262.41
2022-09-12T17:11:01.838Z,98272.25
2022-09-12T17:14:07.631Z,98274.75
2022-09-12T17:17:10.694Z,98275.81
2022-09-12T17:20:13.289Z,98273.41
2022-09-12T17:23:16.799Z,98276.81
2022-09-12T17:26:19.568Z,98282.78
2022-09-12T17:29:22.494Z,98284.41
2022-09-12T17:32:25.022Z,98282.94
2022-09-12T17:35:27.963Z,98282.12
2022-09-12T17:38:34.756Z,98284.78
2022-09-12T17:41:37.772Z,98300.47
2022-09-12T17:44:40.576Z,98293.53
2022-09-12T17:47:43.307Z,98290.69
2022-09-12T17:50:46.587Z,98297.31
2022-09-12T17:53:49.388Z,98308.94
2022-09-12T17:56:52.339Z,98308.28
2022-09-12T17:59:55.135Z,98304.06
2022-09-12T18:02:58.012Z,98296.72
2022-09-12T18:06:01.071Z,98299.28
2022-09-12T18:09:05.976Z,98308.75
2022-09-12T18:12:08.813Z,98326.28
2022-09-12T18:15:11.397Z,98323.34
2022-09-12T18:18:14.264Z,98324.75
2022-09-12T18:21:17.420Z,98334.22
2022-09-12T18:24:20.696Z,98327.91
2022-09-12T18:27:23.298Z,98324.09
2022-09-12T18:30:26.049Z,98324.84
2022-09-12T18:33:28.654Z,98326.16
2022-09-12T18:36:31.864Z,98309.59
2022-09-12T18:39:34.451Z,98328.84
2022-09-12T18:42:37.246Z,98332.66
2022-09-12T18:45:40.088Z,98328.31
2022-09-12T18:48:44.701Z,98332.66
2022-09-12T18:51:47.209Z,98331.13
2022-09-12T18:54:49.968Z,98323.03
2022-09-12T18:57:52.562Z,98339.87
2022-09-12T19:00:55.509Z,98337.38
2022-09-12T19:03:58.211Z,98339.31
2022-09-12T19:07:01.618Z,98337.59
2022-09-12T19:10:05.022Z,98336.50
2022-09-12T19:13:07.876Z,98334.97
2022-09-12T19:16:14.751Z,98334.59
2022-09-12T19:19:18.953Z,98337.03
2022-09-12T19:22:21.638Z,98339.09
2022-09-12T19:25:24.470Z,98334.69
2022-09-12T19:28:28.133Z,98316.50
2022-09-12T19:31:32.141Z,98337.50
2022-09-12T19:34:34.720Z,98327.16
2022-09-12T19:37:37.528Z,98331.94
2022-09-12T19:40:40.704Z,98331.84
2022-09-12T19:43:43.722Z,98331.94
2022-09-12T19:46:46.588Z,98329.41
2022-09-12T19:49:49.433Z,98340.59
2022-09-12T19:52:51.992Z,98344.50
2022-09-12T19:55:59.903Z,98343.06
2022-09-12T19:59:02.886Z,98345.69
2022-09-12T20:02:05.943Z,98337.97
2022-09-12T20:05:09.059Z,98344.78
2022-09-12T20:08:11.879Z,98337.81
2022-09-12T20:11:17.544Z,98336.28
2022-09-12T20:14:21.317Z,98331.72
2022-09-12T20:17:24.264Z,98328.91
2022-09-12T20:20:26.815Z,98336.66
2022-09-12T20:23:29.884Z,98330.38
2022-09-12T20:26:32.609Z,98334.63
2022-09-12T20:29:35.381Z,98341.34
2022-09-12T20:32:37.886Z,98343.28
2022-09-12T20:35:40.703Z,98346.66
2022-09-12T20:38:48.344Z,98341.72
2022-09-12T20:41:51.289Z,98325.06
2022-09-12T20:44:53.775Z,98339.00
2022-09-12T20:47:56.555Z,98346.72
2022-09-12T20:50:59.949Z,98353.09
2022-09-12T20:54:04.739Z,98330.72
2022-09-12T20:57:07.248Z,98349.19
2022-09-12T21:00:10.982Z,98356.22
2022-09-12T21:03:14.592Z,98366.28
2022-09-12T21:06:17.751Z,98368.75
2022-09-12T21:09:20.235Z,98372.16
2022-09-12T21:12:23.437Z,98376.00
2022-09-12T21:15:26.045Z,98361.28
2022-09-12T21:18:29.262Z,98373.56
2022-09-12T21:21:32.403Z,98374.81
2022-09-12T21:24:35.208Z,98372.63
2022-09-12T21:27:37.670Z,98387.94
2022-09-12T21:30:43.836Z,98389.09
2022-09-12T21:33:46.363Z,98393.09
2022-09-12T21:36:49.303Z,98391.53
2022-09-12T21:39:51.931Z,98400.94
2022-09-12T21:42:54.728Z,98394.75
2022-09-12T21:45:59.150Z,98393.59
2022-09-12T21:49:02.784Z,98401.28
2022-09-12T21:52:05.326Z,98402.25
2022-09-12T21:55:09.540Z,98388.19
2022-09-12T21:58:12.123Z,98396.50
2022-09-12T22:01:15.014Z,98396.16
2022-09-12T22:04:17.852Z,98389.81
2022-09-12T22:07:20.763Z,98391.59
2022-09-12T22:10:23.498Z,98392.59
2022-09-12T22:13:26.342Z,98402.44
2022-09-12T22:16:29.991Z,98397.03
2022-09-12T22:19:32.706Z,98403.13
2022-09-12T22:22:54.651Z,98404.72
2022-09-12T22:25:57.457Z,98401.13
2022-09-12T22:29:00.965Z,98410.28
2022-09-12T22:32:03.879Z,98407.50
2022-09-12T22:35:06.890Z,98375.56
2022-09-12T22:38:09.381Z,98405.84
2022-09-12T22:41:12.247Z,98402.88
2022-09-12T22:44:14.887Z,98412.28
2022-09-12T22:47:20.051Z,98412.66
2022-09-12T22:50:23.117Z,98407.91
2022-09-12T22:53:26.219Z,98408.41
2022-09-12T22:56:28.825Z,98415.37
2022-09-12T22:59:31.783Z,98411.81
2022-09-12T23:02:34.928Z,98405.47
2022-09-12T23:05:37.796Z,98400.66
2022-09-12T23:08:40.415Z,98395.47
2022-09-12T23:11:43.135Z,98397.38
2022-09-12T23:14:46.691Z,98388.66
2022-09-12T23:17:49.536Z,98391.78
2022-09-12T23:21:05.973Z,98396.38
2022-09-12T23:24:08.803Z,98396.47
2022-09-12T23:27:11.388Z,98391.06
2022-09-12T23:30:14.321Z,98390.03
2022-09-12T23:33:17.007Z,98381.44
2022-09-12T23:36:19.857Z,98383.66
2022-09-12T23:39:23.387Z,98381.81
2022-09-12T23:42:26.321Z,98396.03
2022-09-12T23:45:29.043Z,98389.06
2022-09-12T23:48:32.856Z,98384.19
2022-09-12T23:51:35.488Z,98391.75
2022-09-12T23:54:38.376Z,98390.75
2022-09-12T23:57:40.829Z,98389.06
